Overview Statistics Trail Chart Weather Telemetry Raw packets
 

This is the latest recevied weather packets stored in our database for station/object DG4CB-13. If no packets are shown the sender has not sent any weather packets the latest 10 day(s).

<< 6 7 8 9 10 11 12 >>
Time Temp. Humidity Pressure Rain* Wind** Luminosity Snow
1788442199 20.56° C 71% 1017.5 hPa - - - -
1788441600 20° C 71% 1017.5 hPa - - - -
1788441000 20° C 74% 1017.5 hPa - - - -
1788440400 20° C 73% 1017.7 hPa - - - -
1788439800 20° C 74% 1017.5 hPa - - - -
1788439200 20° C 70% 1017.7 hPa - - - -
1788438600 19.44° C 76% 1017.5 hPa - - - -
1788438000 18.89° C 77% 1017.5 hPa - - - -
1788437400 18.89° C 76% 1017.6 hPa - - - -
1788436800 18.33° C 75% 1017.4 hPa - - - -
1788422400 16.11° C 71% 1018.5 hPa - - - -
1788421800 16.11° C 71% 1018.6 hPa - - - -
1788421200 15.56° C 73% 1018.3 hPa - - - -
1788420600 15.56° C 74% 1018.2 hPa - - - -
1788420000 15° C 74% 1018.5 hPa - - - -
1788419400 15° C 76% 1018.6 hPa - - - -
1788418800 14.44° C 78% 1018.5 hPa - - - -
1788418200 13.89° C 79% 1018.5 hPa - - - -
1788417600 13.89° C 79% 1018.5 hPa - - - -
1788417000 13.33° C 80% 1018.2 hPa - - - -
1788416400 13.33° C 82% 1018.2 hPa - - - -
1788415800 12.78° C 84% 1018.4 hPa - - - -
1788415200 12.78° C 84% 1018.7 hPa - - - -
1788414600 12.22° C 87% 1018.9 hPa - - - -
1788414001 12.22° C 87% 1019.1 hPa - - - -

* Rain since midnight (hover to see other rain measurements)
** Current wind speed in m/s (hover to see current wind gust speed)